createdAt,value
2023-04-21T00:00:56.456Z,11.19
2023-04-21T00:06:01.568Z,11.46
2023-04-21T00:11:04.582Z,11.55
2023-04-21T00:16:09.168Z,11.32
2023-04-21T00:21:12.161Z,11.20
2023-04-21T00:26:16.649Z,11.35
2023-04-21T00:31:25.431Z,11.68
2023-04-21T00:36:28.592Z,11.39
2023-04-21T00:41:31.829Z,11.22
2023-04-21T00:46:36.489Z,11.72
2023-04-21T00:51:39.299Z,11.49
2023-04-21T00:56:42.087Z,11.78
2023-04-21T01:01:46.399Z,11.76
2023-04-21T01:06:51.003Z,11.27
2023-04-21T01:12:13.275Z,11.67
2023-04-21T01:17:18.798Z,11.77
2023-04-21T01:22:24.931Z,11.60
2023-04-21T01:27:27.878Z,11.49
2023-04-21T01:32:31.529Z,11.51
2023-04-21T01:37:36.283Z,11.44
2023-04-21T01:42:42.587Z,11.11
2023-04-21T01:47:46.001Z,11.34
2023-04-21T01:52:51.017Z,11.12
2023-04-21T01:57:53.770Z,11.28
2023-04-21T02:02:56.740Z,11.49
2023-04-21T02:08:00.977Z,11.11
2023-04-21T02:13:03.904Z,11.19
2023-04-21T02:18:08.289Z,10.94
2023-04-21T02:23:12.976Z,10.71
2023-04-21T02:28:15.936Z,10.95
2023-04-21T02:33:18.679Z,11.03
2023-04-21T02:38:22.875Z,11.04
2023-04-21T02:43:25.975Z,10.99
2023-04-21T02:48:28.693Z,11.22
2023-04-21T02:53:32.975Z,11.07
2023-04-21T02:58:36.042Z,11.05
2023-04-21T03:03:38.968Z,10.79
2023-04-21T03:08:43.196Z,11.17
2023-04-21T03:13:46.119Z,11.17
2023-04-21T03:18:48.860Z,11.18
2023-04-21T03:23:54.051Z,11.22
2023-04-21T03:28:56.835Z,11.19
2023-04-21T03:34:00.054Z,10.84
2023-04-21T03:39:16.922Z,11.43
2023-04-21T03:44:22.512Z,11.08
2023-04-21T03:49:25.545Z,10.90
2023-04-21T03:54:29.651Z,11.06
2023-04-21T03:59:32.411Z,10.68
2023-04-21T04:04:35.486Z,11.18
2023-04-21T04:09:39.676Z,10.98
2023-04-21T04:14:42.427Z,11.22
2023-04-21T04:19:45.275Z,11.22
2023-04-21T04:24:49.381Z,11.21
2023-04-21T04:29:53.124Z,10.69
2023-04-21T04:34:57.441Z,11.39
2023-04-21T04:40:01.652Z,11.61
2023-04-21T04:45:05.904Z,11.84
2023-04-21T04:50:09.191Z,11.71
2023-04-21T04:55:13.624Z,11.78
2023-04-21T05:00:16.752Z,12.25
2023-04-21T05:05:20.333Z,12.65
2023-04-21T05:10:24.901Z,11.87
2023-04-21T05:15:27.703Z,12.41
2023-04-21T05:20:30.531Z,12.63
2023-04-21T05:25:34.885Z,11.94
2023-04-21T05:30:37.657Z,12.64
2023-04-21T05:35:40.710Z,12.35
2023-04-21T05:40:45.359Z,12.42
2023-04-21T05:45:48.153Z,12.61
2023-04-21T05:50:50.921Z,13.17
2023-04-21T05:55:54.985Z,13.33
2023-04-21T06:00:59.775Z,14.02
2023-04-21T06:06:04.296Z,16.14
2023-04-21T06:11:08.572Z,18.64
2023-04-21T06:16:11.509Z,17.04
2023-04-21T06:21:14.394Z,17.50
2023-04-21T06:26:23.650Z,20.53
2023-04-21T06:31:27.110Z,22.35
2023-04-21T06:36:29.905Z,23.49
2023-04-21T06:41:35.124Z,23.46
2023-04-21T06:46:38.043Z,23.72
2023-04-21T06:51:40.943Z,21.09
2023-04-21T06:56:45.165Z,22.43
2023-04-21T07:01:49.063Z,24.60
2023-04-21T07:06:51.997Z,25.21
2023-04-21T07:11:56.501Z,25.04
2023-04-21T07:16:59.502Z,24.11
2023-04-21T07:22:02.376Z,25.33
2023-04-21T07:27:07.262Z,24.49
2023-04-21T07:32:10.417Z,25.34
2023-04-21T07:37:13.477Z,24.53
2023-04-21T07:42:19.036Z,23.79
2023-04-21T07:47:21.963Z,24.47
2023-04-21T07:52:24.932Z,22.52
2023-04-21T07:57:29.202Z,22.43
2023-04-21T08:02:32.043Z,21.91
2023-04-21T08:07:34.915Z,22.33
2023-04-21T08:12:39.253Z,21.00
2023-04-21T08:17:42.191Z,19.38
2023-04-21T08:22:47.374Z,18.04
2023-04-21T08:27:53.823Z,17.26
2023-04-21T08:32:56.690Z,17.65
2023-04-21T08:37:59.432Z,17.43
2023-04-21T08:43:03.656Z,18.29
2023-04-21T08:48:07.763Z,18.31
2023-04-21T08:53:14.707Z,18.81
2023-04-21T08:58:18.953Z,19.30
2023-04-21T09:03:26.263Z,18.39
2023-04-21T09:08:30.476Z,18.47
2023-04-21T09:13:35.965Z,18.79
2023-04-21T09:18:40.404Z,18.82
2023-04-21T09:23:44.564Z,18.65
2023-04-21T09:28:50.234Z,18.43
2023-04-21T09:33:59.645Z,18.36
2023-04-21T09:44:12.843Z,19.90
2023-04-21T09:49:18.490Z,19.55
2023-04-21T09:59:31.912Z,19.64
2023-04-21T10:04:36.177Z,19.51
2023-04-21T10:09:44.084Z,19.74
2023-04-21T10:14:52.205Z,20.43
2023-04-21T10:19:57.148Z,20.51
2023-04-21T10:25:02.123Z,20.44
2023-04-21T10:30:22.481Z,21.09
2023-04-21T10:35:26.077Z,21.29
2023-04-21T10:40:44.318Z,21.43
2023-04-21T10:45:49.459Z,20.78
2023-04-21T10:50:52.909Z,21.29
2023-04-21T10:55:56.156Z,21.00
2023-04-21T11:01:03.323Z,21.40
2023-04-21T11:06:15.666Z,21.61
2023-04-21T11:11:23.693Z,21.44
2023-04-21T11:16:28.115Z,21.65
2023-04-21T11:21:31.089Z,21.16
2023-04-21T11:26:34.602Z,21.91
2023-04-21T11:31:40.511Z,22.28
2023-04-21T11:36:45.369Z,22.03
2023-04-21T11:41:49.935Z,22.16
2023-04-21T11:46:54.290Z,21.71
2023-04-21T11:51:57.675Z,21.88
2023-04-21T11:57:02.897Z,21.96
2023-04-21T12:02:14.156Z,22.27
2023-04-21T12:07:23.989Z,22.08
2023-04-21T12:12:27.998Z,22.74
2023-04-21T12:17:38.899Z,22.29
2023-04-21T12:22:41.688Z,23.22
2023-04-21T12:27:49.981Z,22.76
2023-04-21T12:32:55.765Z,22.66
2023-04-21T12:37:58.835Z,22.36
2023-04-21T12:43:01.654Z,22.25
2023-04-21T12:48:06.655Z,22.66
2023-04-21T12:53:09.496Z,23.06
2023-04-21T12:58:12.726Z,23.47
2023-04-21T13:03:16.944Z,23.43
2023-04-21T13:08:19.967Z,23.53
2023-04-21T13:13:22.796Z,23.61
2023-04-21T13:18:27.040Z,23.50
2023-04-21T13:23:30.349Z,22.90
2023-04-21T13:28:33.318Z,22.91
2023-04-21T13:33:37.643Z,23.11
2023-04-21T13:38:40.945Z,23.43
2023-04-21T13:43:43.845Z,23.52
2023-04-21T13:48:48.104Z,23.20
2023-04-21T13:53:50.909Z,23.56
2023-04-21T13:58:55.102Z,23.36
2023-04-21T14:03:59.476Z,23.50
2023-04-21T14:09:02.438Z,23.89
2023-04-21T14:14:09.565Z,23.20
2023-04-21T14:19:15.495Z,23.40
2023-04-21T14:24:18.400Z,23.28
2023-04-21T14:29:21.324Z,23.57
2023-04-21T14:34:25.811Z,23.71
2023-04-21T14:39:28.625Z,23.21
2023-04-21T14:44:31.400Z,23.14
2023-04-21T14:49:36.109Z,22.74
2023-04-21T14:54:39.357Z,22.21
2023-04-21T14:59:43.737Z,22.45
2023-04-21T15:04:48.312Z,22.50
2023-04-21T15:09:51.382Z,22.47
2023-04-21T15:14:54.237Z,22.91
2023-04-21T15:19:58.523Z,22.90
2023-04-21T15:25:01.362Z,22.89
2023-04-21T15:30:04.825Z,23.37
2023-04-21T15:35:09.902Z,22.71
2023-04-21T15:40:13.259Z,22.82
2023-04-21T15:45:17.819Z,22.36
2023-04-21T15:50:23.223Z,22.70
2023-04-21T15:55:27.850Z,22.37
2023-04-21T16:00:30.690Z,22.56
2023-04-21T16:05:35.065Z,22.11
2023-04-21T16:10:38.079Z,22.18
2023-04-21T16:15:41.331Z,21.92
2023-04-21T16:20:46.121Z,22.18
2023-04-21T16:25:49.570Z,21.91
2023-04-21T16:30:52.378Z,22.10
2023-04-21T16:35:57.685Z,21.87
2023-04-21T16:41:00.684Z,21.71
2023-04-21T16:46:03.502Z,21.62
2023-04-21T16:51:07.838Z,21.99
2023-04-21T16:56:10.993Z,21.29
2023-04-21T17:01:14.581Z,21.84
2023-04-21T17:06:20.971Z,21.89
2023-04-21T17:11:23.730Z,21.55
2023-04-21T17:16:26.600Z,21.49
2023-04-21T17:21:31.709Z,21.53
2023-04-21T17:26:34.663Z,21.27
2023-04-21T17:31:37.953Z,21.23
2023-04-21T17:36:44.220Z,21.01
2023-04-21T17:41:48.374Z,21.18
2023-04-21T17:46:52.271Z,21.32
2023-04-21T17:51:56.611Z,21.10
2023-04-21T17:56:59.518Z,20.81
2023-04-21T18:02:02.437Z,20.52
2023-04-21T18:07:07.131Z,20.67
2023-04-21T18:12:10.058Z,20.43
2023-04-21T18:17:14.702Z,20.13
2023-04-21T18:22:20.778Z,19.93
2023-04-21T18:27:23.677Z,19.63
2023-04-21T18:32:26.732Z,19.68
2023-04-21T18:37:30.997Z,19.48
2023-04-21T18:42:34.639Z,19.36
2023-04-21T18:47:39.218Z,19.45
2023-04-21T18:52:43.514Z,19.36
2023-04-21T18:57:46.389Z,18.79
2023-04-21T19:02:51.099Z,18.94
2023-04-21T19:07:55.393Z,18.90
2023-04-21T19:12:58.201Z,18.68
2023-04-21T19:18:01.110Z,18.65
2023-04-21T19:23:05.658Z,18.31
2023-04-21T19:28:08.628Z,18.37
2023-04-21T19:33:11.496Z,18.01
2023-04-21T19:38:16.037Z,17.98
2023-04-21T19:43:20.224Z,17.95
2023-04-21T19:48:23.973Z,17.97
2023-04-21T19:53:28.216Z,17.91
2023-04-21T19:58:40.151Z,17.89
2023-04-21T20:03:43.722Z,17.90
2023-04-21T20:08:48.094Z,17.60
2023-04-21T20:13:51.179Z,17.43
2023-04-21T20:18:54.023Z,17.53
2023-04-21T20:23:58.266Z,17.17
2023-04-21T20:29:01.103Z,17.40
2023-04-21T20:34:03.969Z,17.14
2023-04-21T20:39:08.412Z,16.88
2023-04-21T20:44:12.711Z,16.97
2023-04-21T20:49:15.539Z,16.66
2023-04-21T20:54:19.705Z,16.99
2023-04-21T20:59:22.446Z,16.65
2023-04-21T21:04:25.260Z,16.64
2023-04-21T21:09:29.512Z,16.53
2023-04-21T21:14:32.410Z,16.62
2023-04-21T21:19:35.236Z,16.55
2023-04-21T21:24:39.448Z,16.28
2023-04-21T21:29:44.258Z,16.13
2023-04-21T21:34:47.476Z,16.17
2023-04-21T21:39:52.611Z,16.40
2023-04-21T21:44:55.403Z,16.29
2023-04-21T21:49:59.063Z,16.45
2023-04-21T21:55:03.160Z,16.40
2023-04-21T22:00:08.156Z,16.33
2023-04-21T22:05:11.611Z,16.31
2023-04-21T22:10:15.905Z,15.90
2023-04-21T22:15:19.630Z,15.82
2023-04-21T22:20:22.805Z,15.99
2023-04-21T22:25:27.710Z,15.61
2023-04-21T22:30:30.671Z,15.99
2023-04-21T22:35:33.412Z,15.70
2023-04-21T22:40:37.695Z,15.30
2023-04-21T22:45:41.232Z,15.41
2023-04-21T22:50:44.815Z,15.51
2023-04-21T22:55:49.108Z,15.55
2023-04-21T23:00:51.997Z,15.51
2023-04-21T23:05:54.816Z,15.92
2023-04-21T23:10:59.095Z,15.63
2023-04-21T23:16:02.130Z,15.36
2023-04-21T23:21:05.121Z,15.44
2023-04-21T23:26:09.243Z,15.06
2023-04-21T23:31:12.656Z,15.06
2023-04-21T23:36:15.405Z,15.00
2023-04-21T23:41:19.486Z,15.03
2023-04-21T23:46:22.224Z,14.99
2023-04-21T23:51:25.137Z,14.64
2023-04-21T23:56:29.343Z,14.95
